JAL918 ROAH-RJTT
Flight info
| Callsign | JAL918 |
|---|---|
| Flight time | 1h 52m |
| Altitude | 39000 |
| Route | AMAMI Y574 SHIBK Y57 SUKBO Y571 BILLY Y21 AKSEL |
| Aircraft | A359/H-SDE2E3GHIJ1J3J4J5LM1ORWXY/LB1D1 |
Departure
| Time | 2026-04-25 10:14 |
|---|---|
| Airport | Naha International Airport (ROAH) |
Arrival
| Time | 2026-04-25 12:06 |
|---|---|
| Airport | Tokyo Haneda International Airport (RJTT) |
| Time | Latitude | Longitude | Altitude | Speed | Heading |
|---|---|---|---|---|---|
| 2026-04-25 09:30 | 26.20438 | 127.64861 | 27 ft | 0 kts | 47° |
| 2026-04-25 09:31 | 26.20437 | 127.64861 | 27 ft | 0 kts | 47° |
| 2026-04-25 09:45 | 26.20438 | 127.64861 | 27 ft | 0 kts | 47° |
| 2026-04-25 09:45 | 26.20437 | 127.64861 | 27 ft | 0 kts | 47° |
| 2026-04-25 09:49 | 26.20438 | 127.64861 | 27 ft | 0 kts | 47° |
| 2026-04-25 09:49 | 26.20437 | 127.64861 | 27 ft | 0 kts | 47° |
| 2026-04-25 10:03 | 26.20435 | 127.64858 | 27 ft | 2 kts | 47° |
| 2026-04-25 10:03 | 26.20423 | 127.64843 | 25 ft | 3 kts | 47° |
| 2026-04-25 10:03 | 26.20411 | 127.64828 | 25 ft | 3 kts | 44° |
| 2026-04-25 10:03 | 26.20397 | 127.64815 | 32 ft | 3 kts | 22° |
| 2026-04-25 10:04 | 26.20383 | 127.64810 | 31 ft | 3 kts | 353° |
| 2026-04-25 10:04 | 26.20368 | 127.64814 | 30 ft | 3 kts | 323° |
| 2026-04-25 10:04 | 26.20357 | 127.64824 | 31 ft | 3 kts | 293° |
| 2026-04-25 10:04 | 26.20353 | 127.64838 | 32 ft | 1 kts | 268° |
| 2026-04-25 10:05 | 26.20353 | 127.64853 | 24 ft | 3 kts | 267° |
| 2026-04-25 10:05 | 26.20354 | 127.64875 | 26 ft | 2 kts | 267° |
| 2026-04-25 10:05 | 26.20354 | 127.64883 | 26 ft | 0 kts | 267° |
| 2026-04-25 10:08 | 26.20354 | 127.64874 | 27 ft | 4 kts | 267° |
| 2026-04-25 10:08 | 26.20352 | 127.64819 | 26 ft | 10 kts | 266° |
| 2026-04-25 10:09 | 26.20301 | 127.64765 | 28 ft | 11 kts | 192° |
| 2026-04-25 10:09 | 26.20222 | 127.64764 | 26 ft | 13 kts | 177° |
| 2026-04-25 10:09 | 26.20122 | 127.64769 | 26 ft | 16 kts | 177° |
| 2026-04-25 10:09 | 26.20004 | 127.64775 | 26 ft | 18 kts | 178° |
| 2026-04-25 10:10 | 26.19868 | 127.64781 | 26 ft | 21 kts | 178° |
| 2026-04-25 10:10 | 26.19736 | 127.64787 | 26 ft | 15 kts | 178° |
| 2026-04-25 10:10 | 26.19625 | 127.64792 | 25 ft | 17 kts | 178° |
| 2026-04-25 10:10 | 26.19496 | 127.64798 | 27 ft | 20 kts | 178° |
| 2026-04-25 10:11 | 26.19348 | 127.64805 | 26 ft | 21 kts | 178° |
| 2026-04-25 10:11 | 26.19231 | 127.64811 | 26 ft | 18 kts | 177° |
| 2026-04-25 10:11 | 26.19109 | 127.64817 | 25 ft | 14 kts | 178° |
| 2026-04-25 10:11 | 26.19005 | 127.64822 | 26 ft | 16 kts | 178° |
| 2026-04-25 10:12 | 26.18917 | 127.64826 | 26 ft | 10 kts | 178° |
| 2026-04-25 10:12 | 26.18841 | 127.64826 | 26 ft | 12 kts | 188° |
| 2026-04-25 10:12 | 26.18798 | 127.64699 | 24 ft | 11 kts | 269° |
| 2026-04-25 10:13 | 26.18801 | 127.64649 | 25 ft | 5 kts | 290° |
| 2026-04-25 10:13 | 26.18834 | 127.64626 | 27 ft | 7 kts | 346° |
| 2026-04-25 10:13 | 26.18891 | 127.64621 | 27 ft | 10 kts | 357° |
| 2026-04-25 10:13 | 26.19044 | 127.64614 | 27 ft | 46 kts | 357° |
| 2026-04-25 10:14 | 26.19634 | 127.64584 | 22 ft | 124 kts | 357° |
| 2026-04-25 10:14 | 26.20712 | 127.64534 | 284 ft | 168 kts | 357° |
| 2026-04-25 10:14 | 26.21861 | 127.64488 | 1245 ft | 164 kts | 358° |
| 2026-04-25 10:14 | 26.23012 | 127.64441 | 1929 ft | 170 kts | 358° |
| 2026-04-25 10:15 | 26.24285 | 127.64379 | 2287 ft | 197 kts | 355° |
| 2026-04-25 10:15 | 26.25756 | 127.64389 | 2588 ft | 226 kts | 1° |
| 2026-04-25 10:15 | 26.27411 | 127.64491 | 3056 ft | 247 kts | 2° |
| 2026-04-25 10:15 | 26.29165 | 127.64619 | 3790 ft | 257 kts | 1° |
| 2026-04-25 10:16 | 26.30966 | 127.64747 | 4589 ft | 262 kts | 0° |
| 2026-04-25 10:16 | 26.32808 | 127.64882 | 5368 ft | 268 kts | 360° |
| 2026-04-25 10:16 | 26.34695 | 127.65018 | 6159 ft | 276 kts | 359° |
| 2026-04-25 10:16 | 26.36649 | 127.65158 | 6920 ft | 284 kts | 359° |
| 2026-04-25 10:17 | 26.38641 | 127.65300 | 7802 ft | 289 kts | 359° |
| 2026-04-25 10:17 | 26.40656 | 127.65448 | 8733 ft | 292 kts | 359° |
| 2026-04-25 10:17 | 26.42697 | 127.65597 | 9496 ft | 295 kts | 358° |
| 2026-04-25 10:17 | 26.45077 | 127.65768 | 10127 ft | 302 kts | 358° |
| 2026-04-25 10:18 | 26.47222 | 127.65919 | 10423 ft | 316 kts | 358° |
| 2026-04-25 10:18 | 26.49467 | 127.66076 | 10670 ft | 330 kts | 358° |
| 2026-04-25 10:18 | 26.51804 | 127.66243 | 10912 ft | 343 kts | 359° |
| 2026-04-25 10:18 | 26.54226 | 127.66417 | 11161 ft | 355 kts | 359° |
| 2026-04-25 10:19 | 26.56718 | 127.66599 | 11557 ft | 361 kts | 359° |
| 2026-04-25 10:19 | 26.59237 | 127.66784 | 12024 ft | 364 kts | 359° |
| 2026-04-25 10:19 | 26.61749 | 127.66967 | 12498 ft | 367 kts | 359° |
| 2026-04-25 10:19 | 26.64303 | 127.67153 | 12966 ft | 369 kts | 359° |
| 2026-04-25 10:20 | 26.66913 | 127.67342 | 13423 ft | 372 kts | 359° |
| 2026-04-25 10:20 | 26.69478 | 127.67528 | 13869 ft | 375 kts | 359° |
| 2026-04-25 10:20 | 26.72090 | 127.67717 | 14262 ft | 378 kts | 359° |
| 2026-04-25 10:20 | 26.74726 | 127.67908 | 14663 ft | 381 kts | 359° |
| 2026-04-25 10:21 | 26.77390 | 127.68101 | 15071 ft | 383 kts | 359° |
| 2026-04-25 10:21 | 26.80065 | 127.68294 | 15493 ft | 386 kts | 359° |
| 2026-04-25 10:21 | 26.82755 | 127.68489 | 15914 ft | 388 kts | 358° |
| 2026-04-25 10:21 | 26.85453 | 127.68685 | 16317 ft | 391 kts | 358° |
| 2026-04-25 10:22 | 26.88179 | 127.68882 | 16725 ft | 393 kts | 358° |
| 2026-04-25 10:22 | 26.89998 | 127.69014 | 16996 ft | 395 kts | 358° |
| 2026-04-25 10:22 | 26.93682 | 127.69281 | 17530 ft | 399 kts | 358° |
| 2026-04-25 10:22 | 26.96463 | 127.69483 | 17931 ft | 401 kts | 358° |
| 2026-04-25 10:23 | 26.99254 | 127.69685 | 18336 ft | 403 kts | 358° |
| 2026-04-25 10:23 | 27.02068 | 127.69923 | 18654 ft | 409 kts | 1° |
| 2026-04-25 10:23 | 27.04862 | 127.70740 | 18955 ft | 422 kts | 17° |
| 2026-04-25 10:23 | 27.07534 | 127.72199 | 19274 ft | 429 kts | 23° |
| 2026-04-25 10:24 | 27.10166 | 127.73789 | 19577 ft | 433 kts | 24° |
| 2026-04-25 10:24 | 27.11925 | 127.74862 | 19784 ft | 435 kts | 24° |
| 2026-04-25 10:24 | 27.15468 | 127.77030 | 20188 ft | 439 kts | 24° |
| 2026-04-25 10:24 | 27.17278 | 127.78138 | 20403 ft | 441 kts | 24° |
| 2026-04-25 10:25 | 27.19985 | 127.79798 | 20705 ft | 444 kts | 24° |
| 2026-04-25 10:25 | 27.22695 | 127.81462 | 20996 ft | 447 kts | 24° |
| 2026-04-25 10:25 | 27.25440 | 127.83150 | 21294 ft | 450 kts | 24° |
| 2026-04-25 10:25 | 27.29092 | 127.85402 | 21681 ft | 454 kts | 24° |
| 2026-04-25 10:26 | 27.30967 | 127.86559 | 21880 ft | 456 kts | 24° |
| 2026-04-25 10:26 | 27.33754 | 127.88281 | 22157 ft | 459 kts | 24° |
| 2026-04-25 10:26 | 27.36565 | 127.90020 | 22447 ft | 462 kts | 24° |
| 2026-04-25 10:26 | 27.39397 | 127.91774 | 22733 ft | 465 kts | 24° |
| 2026-04-25 10:27 | 27.42237 | 127.93534 | 23019 ft | 467 kts | 24° |
| 2026-04-25 10:27 | 27.45055 | 127.95281 | 23296 ft | 470 kts | 24° |
| 2026-04-25 10:27 | 27.47930 | 127.97066 | 23560 ft | 473 kts | 24° |
| 2026-04-25 10:27 | 27.50824 | 127.98865 | 23793 ft | 475 kts | 24° |
| 2026-04-25 10:28 | 27.53725 | 128.00671 | 24010 ft | 478 kts | 24° |
| 2026-04-25 10:28 | 27.56647 | 128.02493 | 24234 ft | 480 kts | 24° |
| 2026-04-25 10:28 | 27.59585 | 128.04328 | 24455 ft | 483 kts | 24° |
| 2026-04-25 10:28 | 27.62518 | 128.06164 | 24681 ft | 485 kts | 24° |
| 2026-04-25 10:29 | 27.65475 | 128.08018 | 24908 ft | 487 kts | 24° |
| 2026-04-25 10:29 | 27.68449 | 128.09886 | 25131 ft | 489 kts | 24° |
| 2026-04-25 10:29 | 27.71418 | 128.11785 | 25357 ft | 493 kts | 26° |
| 2026-04-25 10:29 | 27.74286 | 128.13941 | 25595 ft | 499 kts | 32° |
| 2026-04-25 10:30 | 27.77061 | 128.16323 | 25836 ft | 502 kts | 33° |
| 2026-04-25 10:30 | 27.79821 | 128.18757 | 26062 ft | 504 kts | 34° |
| 2026-04-25 10:30 | 27.82458 | 128.21335 | 26294 ft | 509 kts | 40° |
| 2026-04-25 10:30 | 27.84963 | 128.24188 | 26535 ft | 513 kts | 43° |
| 2026-04-25 10:31 | 27.87425 | 128.27125 | 26761 ft | 515 kts | 44° |
| 2026-04-25 10:31 | 27.89893 | 128.30085 | 27005 ft | 518 kts | 44° |
| 2026-04-25 10:31 | 27.92375 | 128.33063 | 27255 ft | 520 kts | 44° |
| 2026-04-25 10:31 | 27.94852 | 128.36037 | 27507 ft | 522 kts | 44° |
| 2026-04-25 10:32 | 27.97359 | 128.39048 | 27764 ft | 524 kts | 44° |
| 2026-04-25 10:32 | 27.99864 | 128.42054 | 28029 ft | 527 kts | 44° |
| 2026-04-25 10:32 | 28.02390 | 128.45083 | 28295 ft | 529 kts | 44° |
| 2026-04-25 10:32 | 28.04915 | 128.48112 | 28565 ft | 531 kts | 44° |
| 2026-04-25 10:33 | 28.07457 | 128.51156 | 28835 ft | 533 kts | 44° |
| 2026-04-25 10:33 | 28.10020 | 128.54222 | 29110 ft | 536 kts | 44° |
| 2026-04-25 10:33 | 28.12591 | 128.57292 | 29380 ft | 538 kts | 44° |
| 2026-04-25 10:33 | 28.15137 | 128.60330 | 29637 ft | 541 kts | 44° |
| 2026-04-25 10:34 | 28.17737 | 128.63426 | 29907 ft | 543 kts | 44° |
| 2026-04-25 10:34 | 28.20350 | 128.66530 | 30170 ft | 545 kts | 44° |
| 2026-04-25 10:34 | 28.22980 | 128.69653 | 30407 ft | 548 kts | 44° |
| 2026-04-25 10:34 | 28.25611 | 128.72781 | 30636 ft | 551 kts | 44° |
| 2026-04-25 10:35 | 28.28189 | 128.76016 | 30868 ft | 556 kts | 49° |
| 2026-04-25 10:35 | 28.30478 | 128.79574 | 31116 ft | 560 kts | 54° |
| 2026-04-25 10:35 | 28.32618 | 128.83282 | 31346 ft | 563 kts | 57° |
| 2026-04-25 10:35 | 28.34677 | 128.87076 | 31586 ft | 566 kts | 58° |
| 2026-04-25 10:36 | 28.36699 | 128.90909 | 31824 ft | 568 kts | 58° |
| 2026-04-25 10:36 | 28.38725 | 128.94777 | 32055 ft | 571 kts | 58° |
| 2026-04-25 10:36 | 28.40768 | 128.98662 | 32279 ft | 574 kts | 58° |
| 2026-04-25 10:36 | 28.42833 | 129.02565 | 32497 ft | 576 kts | 58° |
| 2026-04-25 10:37 | 28.44912 | 129.06472 | 32710 ft | 579 kts | 58° |
| 2026-04-25 10:37 | 28.47004 | 129.10390 | 32916 ft | 582 kts | 58° |
| 2026-04-25 10:37 | 28.49111 | 129.14330 | 33117 ft | 584 kts | 57° |
| 2026-04-25 10:37 | 28.51232 | 129.18296 | 33314 ft | 587 kts | 57° |
| 2026-04-25 10:38 | 28.53330 | 129.22224 | 33532 ft | 590 kts | 58° |
| 2026-04-25 10:38 | 28.55460 | 129.26216 | 33713 ft | 592 kts | 58° |
| 2026-04-25 10:38 | 28.57631 | 129.30291 | 33926 ft | 595 kts | 58° |
| 2026-04-25 10:38 | 28.59777 | 129.34325 | 34100 ft | 597 kts | 58° |
| 2026-04-25 10:39 | 28.61904 | 129.38329 | 34305 ft | 599 kts | 58° |
| 2026-04-25 10:39 | 28.64062 | 129.42394 | 34563 ft | 599 kts | 58° |
| 2026-04-25 10:39 | 28.66213 | 129.46455 | 34837 ft | 599 kts | 58° |
| 2026-04-25 10:39 | 28.68361 | 129.50517 | 35113 ft | 599 kts | 58° |
| 2026-04-25 10:40 | 28.70510 | 129.54574 | 35396 ft | 598 kts | 58° |
| 2026-04-25 10:40 | 28.72668 | 129.58650 | 35678 ft | 598 kts | 58° |
| 2026-04-25 10:40 | 28.74814 | 129.62704 | 35959 ft | 598 kts | 58° |
| 2026-04-25 10:40 | 28.76965 | 129.66774 | 36262 ft | 598 kts | 58° |
| 2026-04-25 10:41 | 28.79105 | 129.70827 | 36545 ft | 598 kts | 58° |
| 2026-04-25 10:41 | 28.81250 | 129.74895 | 36809 ft | 598 kts | 58° |
| 2026-04-25 10:41 | 28.83398 | 129.78975 | 37096 ft | 598 kts | 58° |
| 2026-04-25 10:41 | 28.85538 | 129.83043 | 37382 ft | 598 kts | 58° |
| 2026-04-25 10:42 | 28.87679 | 129.87118 | 37669 ft | 598 kts | 58° |
| 2026-04-25 10:42 | 28.89790 | 129.91144 | 37950 ft | 598 kts | 58° |
| 2026-04-25 10:42 | 28.91923 | 129.95218 | 38224 ft | 598 kts | 58° |
| 2026-04-25 10:42 | 28.94062 | 129.99299 | 38514 ft | 598 kts | 58° |
| 2026-04-25 10:43 | 28.96193 | 130.03367 | 38783 ft | 598 kts | 58° |
| 2026-04-25 10:43 | 28.98327 | 130.07444 | 38986 ft | 598 kts | 58° |
| 2026-04-25 10:43 | 29.00461 | 130.11525 | 39034 ft | 599 kts | 58° |
| 2026-04-25 10:44 | 29.04728 | 130.19702 | 39037 ft | 598 kts | 58° |
| 2026-04-25 10:44 | 29.08990 | 130.27889 | 39037 ft | 599 kts | 58° |
| 2026-04-25 10:45 | 29.13238 | 130.36077 | 39034 ft | 598 kts | 58° |
| 2026-04-25 10:45 | 29.17484 | 130.44261 | 39033 ft | 598 kts | 58° |
| 2026-04-25 10:46 | 29.21698 | 130.52397 | 39040 ft | 598 kts | 58° |
| 2026-04-25 10:46 | 29.25935 | 130.60598 | 39040 ft | 598 kts | 58° |
| 2026-04-25 10:47 | 29.30164 | 130.68802 | 39039 ft | 598 kts | 58° |
| 2026-04-25 10:47 | 29.34389 | 130.77017 | 39041 ft | 598 kts | 58° |
| 2026-04-25 10:48 | 29.38609 | 130.85237 | 39054 ft | 598 kts | 58° |
| 2026-04-25 10:48 | 29.42830 | 130.93475 | 39052 ft | 598 kts | 58° |
| 2026-04-25 10:49 | 29.47044 | 131.01717 | 39053 ft | 598 kts | 58° |
| 2026-04-25 10:49 | 29.51219 | 131.09899 | 39042 ft | 598 kts | 58° |
| 2026-04-25 10:50 | 29.55424 | 131.18157 | 39048 ft | 598 kts | 58° |
| 2026-04-25 10:50 | 29.59621 | 131.26416 | 39050 ft | 599 kts | 58° |
| 2026-04-25 10:51 | 29.63815 | 131.34686 | 39048 ft | 599 kts | 58° |
| 2026-04-25 10:51 | 29.68005 | 131.42974 | 39049 ft | 599 kts | 58° |
| 2026-04-25 10:52 | 29.72191 | 131.51263 | 39049 ft | 599 kts | 58° |
| 2026-04-25 10:52 | 29.76371 | 131.59550 | 39052 ft | 598 kts | 58° |
| 2026-04-25 10:53 | 29.80539 | 131.67833 | 39048 ft | 599 kts | 58° |
| 2026-04-25 10:53 | 29.84715 | 131.76151 | 39051 ft | 599 kts | 58° |
| 2026-04-25 10:54 | 29.88881 | 131.84468 | 39051 ft | 599 kts | 59° |
| 2026-04-25 10:54 | 29.93044 | 131.92794 | 39051 ft | 599 kts | 59° |
| 2026-04-25 10:55 | 29.97176 | 132.01074 | 39051 ft | 599 kts | 59° |
| 2026-04-25 10:55 | 30.01320 | 132.09405 | 39053 ft | 599 kts | 59° |
| 2026-04-25 10:56 | 30.05468 | 132.17759 | 39056 ft | 599 kts | 59° |
| 2026-04-25 10:56 | 30.09609 | 132.26115 | 39057 ft | 599 kts | 59° |
| 2026-04-25 10:57 | 30.13746 | 132.34477 | 39051 ft | 599 kts | 59° |
| 2026-04-25 10:57 | 30.17871 | 132.42835 | 39052 ft | 599 kts | 59° |
| 2026-04-25 10:58 | 30.22001 | 132.51222 | 39050 ft | 599 kts | 59° |
| 2026-04-25 10:58 | 30.26102 | 132.59565 | 39057 ft | 599 kts | 59° |
| 2026-04-25 10:59 | 30.30217 | 132.67956 | 39057 ft | 600 kts | 59° |
| 2026-04-25 10:59 | 30.34331 | 132.76363 | 39054 ft | 600 kts | 59° |
| 2026-04-25 11:00 | 30.38437 | 132.84772 | 39053 ft | 600 kts | 59° |
| 2026-04-25 11:00 | 30.42542 | 132.93196 | 39056 ft | 600 kts | 59° |
| 2026-04-25 11:01 | 30.46635 | 133.01614 | 39060 ft | 600 kts | 59° |
| 2026-04-25 11:01 | 30.50729 | 133.10051 | 39060 ft | 600 kts | 59° |
| 2026-04-25 11:02 | 30.54825 | 133.18512 | 39056 ft | 601 kts | 59° |
| 2026-04-25 11:02 | 30.58921 | 133.26993 | 39059 ft | 601 kts | 59° |
| 2026-04-25 11:03 | 30.62979 | 133.35413 | 39060 ft | 601 kts | 59° |
| 2026-04-25 11:03 | 30.67084 | 133.43948 | 39057 ft | 601 kts | 59° |
| 2026-04-25 11:04 | 30.71130 | 133.52379 | 39060 ft | 601 kts | 59° |
| 2026-04-25 11:04 | 30.75212 | 133.60903 | 39059 ft | 602 kts | 59° |
| 2026-04-25 11:05 | 30.79284 | 133.69427 | 39062 ft | 602 kts | 59° |
| 2026-04-25 11:05 | 30.83969 | 133.77447 | 39066 ft | 598 kts | 49° |
| 2026-04-25 11:06 | 30.89103 | 133.85075 | 39069 ft | 598 kts | 48° |
| 2026-04-25 11:06 | 30.94312 | 133.92642 | 39070 ft | 599 kts | 47° |
| 2026-04-25 11:07 | 30.99513 | 134.00216 | 39070 ft | 599 kts | 48° |
| 2026-04-25 11:07 | 31.03821 | 134.06531 | 39074 ft | 599 kts | 48° |
| 2026-04-25 11:08 | 31.08996 | 134.14148 | 39078 ft | 599 kts | 48° |
| 2026-04-25 11:08 | 31.14172 | 134.21783 | 39077 ft | 599 kts | 48° |
| 2026-04-25 11:09 | 31.19335 | 134.29410 | 39081 ft | 600 kts | 48° |
| 2026-04-25 11:09 | 31.24510 | 134.37069 | 39086 ft | 600 kts | 48° |
| 2026-04-25 11:10 | 31.29684 | 134.44742 | 39086 ft | 600 kts | 48° |
| 2026-04-25 11:10 | 31.34855 | 134.52426 | 39089 ft | 601 kts | 49° |
| 2026-04-25 11:11 | 31.40023 | 134.60120 | 39093 ft | 601 kts | 49° |
| 2026-04-25 11:11 | 31.45186 | 134.67822 | 39099 ft | 601 kts | 49° |
| 2026-04-25 11:12 | 31.50351 | 134.75542 | 39104 ft | 602 kts | 49° |
| 2026-04-25 11:12 | 31.55486 | 134.83235 | 39107 ft | 603 kts | 49° |
| 2026-04-25 11:13 | 31.60662 | 134.91002 | 39112 ft | 603 kts | 49° |
| 2026-04-25 11:13 | 31.65828 | 134.98771 | 39120 ft | 604 kts | 49° |
| 2026-04-25 11:14 | 31.70991 | 135.06552 | 39114 ft | 605 kts | 49° |
| 2026-04-25 11:14 | 31.76338 | 135.14162 | 39120 ft | 602 kts | 44° |
| 2026-04-25 11:15 | 31.82044 | 135.21371 | 39121 ft | 601 kts | 42° |
| 2026-04-25 11:15 | 31.87749 | 135.28566 | 39131 ft | 602 kts | 43° |
| 2026-04-25 11:16 | 31.96197 | 135.39548 | 39132 ft | 603 kts | 44° |
| 2026-04-25 11:16 | 32.01801 | 135.46922 | 39140 ft | 604 kts | 44° |
| 2026-04-25 11:17 | 32.07400 | 135.54295 | 39136 ft | 604 kts | 44° |
| 2026-04-25 11:17 | 32.12982 | 135.61648 | 39140 ft | 605 kts | 44° |
| 2026-04-25 11:18 | 32.18593 | 135.69049 | 39143 ft | 605 kts | 44° |
| 2026-04-25 11:18 | 32.24220 | 135.76488 | 39148 ft | 606 kts | 44° |
| 2026-04-25 11:19 | 32.29833 | 135.83924 | 39148 ft | 606 kts | 44° |
| 2026-04-25 11:19 | 32.35419 | 135.91339 | 39155 ft | 607 kts | 44° |
| 2026-04-25 11:20 | 32.41029 | 135.98802 | 39156 ft | 607 kts | 44° |
| 2026-04-25 11:20 | 32.46645 | 136.06293 | 39157 ft | 608 kts | 44° |
| 2026-04-25 11:21 | 32.52265 | 136.13787 | 39161 ft | 608 kts | 44° |
| 2026-04-25 11:21 | 32.57891 | 136.21296 | 39161 ft | 609 kts | 44° |
| 2026-04-25 11:22 | 32.62603 | 136.27602 | 39168 ft | 609 kts | 44° |
| 2026-04-25 11:22 | 32.69132 | 136.36361 | 39167 ft | 610 kts | 44° |
| 2026-04-25 11:23 | 32.74753 | 136.43921 | 39171 ft | 611 kts | 45° |
| 2026-04-25 11:23 | 32.80378 | 136.51501 | 39177 ft | 611 kts | 45° |
| 2026-04-25 11:24 | 32.86002 | 136.59095 | 39178 ft | 612 kts | 45° |
| 2026-04-25 11:24 | 32.91631 | 136.66712 | 39181 ft | 612 kts | 45° |
| 2026-04-25 11:25 | 32.97260 | 136.74327 | 39182 ft | 613 kts | 45° |
| 2026-04-25 11:25 | 33.02892 | 136.81971 | 39186 ft | 613 kts | 45° |
| 2026-04-25 11:26 | 33.08525 | 136.89634 | 39185 ft | 614 kts | 45° |
| 2026-04-25 11:26 | 33.14153 | 136.97304 | 39194 ft | 615 kts | 45° |
| 2026-04-25 11:27 | 33.19801 | 137.05008 | 39195 ft | 618 kts | 46° |
| 2026-04-25 11:27 | 33.24518 | 137.11461 | 39198 ft | 620 kts | 46° |
| 2026-04-25 11:28 | 33.31118 | 137.20512 | 39196 ft | 621 kts | 46° |
| 2026-04-25 11:28 | 33.36777 | 137.28301 | 39203 ft | 621 kts | 46° |
| 2026-04-25 11:29 | 33.42455 | 137.36128 | 39200 ft | 621 kts | 46° |
| 2026-04-25 11:29 | 33.48123 | 137.43956 | 39207 ft | 621 kts | 46° |
| 2026-04-25 11:30 | 33.53779 | 137.51781 | 39210 ft | 621 kts | 46° |
| 2026-04-25 11:30 | 33.59391 | 137.59586 | 39209 ft | 622 kts | 47° |
| 2026-04-25 11:31 | 33.61872 | 137.63848 | 39233 ft | 625 kts | 59° |
| 2026-04-25 11:31 | 33.64088 | 137.68342 | 39214 ft | 625 kts | 60° |
| 2026-04-25 11:31 | 33.66232 | 137.72885 | 39046 ft | 625 kts | 61° |
| 2026-04-25 11:31 | 33.68330 | 137.77464 | 38800 ft | 625 kts | 62° |
| 2026-04-25 11:32 | 33.70397 | 137.82046 | 38565 ft | 626 kts | 62° |
| 2026-04-25 11:32 | 33.72494 | 137.86713 | 38286 ft | 626 kts | 62° |
| 2026-04-25 11:32 | 33.74533 | 137.91241 | 37783 ft | 623 kts | 62° |
| 2026-04-25 11:32 | 33.76601 | 137.95815 | 37141 ft | 621 kts | 61° |
| 2026-04-25 11:33 | 33.78667 | 138.00371 | 36485 ft | 620 kts | 61° |
| 2026-04-25 11:33 | 33.80729 | 138.04909 | 35817 ft | 619 kts | 61° |
| 2026-04-25 11:33 | 33.82795 | 138.09457 | 35110 ft | 618 kts | 60° |
| 2026-04-25 11:33 | 33.84853 | 138.13989 | 34432 ft | 617 kts | 60° |
| 2026-04-25 11:34 | 33.86899 | 138.18517 | 33658 ft | 616 kts | 60° |
| 2026-04-25 11:34 | 33.88937 | 138.23056 | 32779 ft | 616 kts | 60° |
| 2026-04-25 11:34 | 33.90979 | 138.27578 | 32121 ft | 613 kts | 60° |
| 2026-04-25 11:34 | 33.93045 | 138.32149 | 31543 ft | 608 kts | 60° |
| 2026-04-25 11:35 | 33.95044 | 138.36611 | 30986 ft | 603 kts | 60° |
| 2026-04-25 11:35 | 33.97016 | 138.41042 | 30413 ft | 599 kts | 60° |
| 2026-04-25 11:35 | 33.98973 | 138.45457 | 29768 ft | 595 kts | 59° |
| 2026-04-25 11:35 | 34.00912 | 138.49835 | 29213 ft | 589 kts | 60° |
| 2026-04-25 11:36 | 34.02828 | 138.54164 | 28646 ft | 582 kts | 60° |
| 2026-04-25 11:36 | 34.04725 | 138.58449 | 28109 ft | 575 kts | 60° |
| 2026-04-25 11:36 | 34.06607 | 138.62662 | 27555 ft | 569 kts | 60° |
| 2026-04-25 11:36 | 34.08466 | 138.66842 | 27013 ft | 562 kts | 60° |
| 2026-04-25 11:37 | 34.10291 | 138.70981 | 26482 ft | 555 kts | 60° |
| 2026-04-25 11:37 | 34.12092 | 138.75059 | 25986 ft | 547 kts | 59° |
| 2026-04-25 11:37 | 34.13864 | 138.79094 | 25501 ft | 539 kts | 61° |
| 2026-04-25 11:37 | 34.15594 | 138.83093 | 25019 ft | 532 kts | 60° |
| 2026-04-25 11:38 | 34.17305 | 138.87010 | 24555 ft | 524 kts | 60° |
| 2026-04-25 11:38 | 34.18995 | 138.90865 | 24099 ft | 516 kts | 60° |
| 2026-04-25 11:38 | 34.20663 | 138.94670 | 23578 ft | 508 kts | 60° |
| 2026-04-25 11:38 | 34.22302 | 138.98423 | 22968 ft | 501 kts | 60° |
| 2026-04-25 11:39 | 34.23919 | 139.02121 | 22407 ft | 494 kts | 60° |
| 2026-04-25 11:39 | 34.25514 | 139.05767 | 21765 ft | 489 kts | 60° |
| 2026-04-25 11:39 | 34.27096 | 139.09385 | 21175 ft | 482 kts | 61° |
| 2026-04-25 11:39 | 34.28564 | 139.13001 | 20631 ft | 476 kts | 64° |
| 2026-04-25 11:40 | 34.29875 | 139.16577 | 20257 ft | 465 kts | 65° |
| 2026-04-25 11:40 | 34.31126 | 139.20123 | 19944 ft | 453 kts | 66° |
| 2026-04-25 11:40 | 34.32331 | 139.23614 | 19590 ft | 443 kts | 66° |
| 2026-04-25 11:40 | 34.33498 | 139.27026 | 19258 ft | 435 kts | 66° |
| 2026-04-25 11:41 | 34.34650 | 139.30398 | 18919 ft | 432 kts | 66° |
| 2026-04-25 11:41 | 34.35796 | 139.33749 | 18585 ft | 429 kts | 66° |
| 2026-04-25 11:41 | 34.36931 | 139.37064 | 18219 ft | 425 kts | 66° |
| 2026-04-25 11:41 | 34.38060 | 139.40354 | 17881 ft | 422 kts | 66° |
| 2026-04-25 11:42 | 34.39183 | 139.43626 | 17539 ft | 419 kts | 66° |
| 2026-04-25 11:42 | 34.40295 | 139.46870 | 17223 ft | 416 kts | 66° |
| 2026-04-25 11:42 | 34.41399 | 139.50091 | 16891 ft | 413 kts | 66° |
| 2026-04-25 11:42 | 34.42511 | 139.53339 | 16573 ft | 410 kts | 66° |
| 2026-04-25 11:43 | 34.43233 | 139.55450 | 16359 ft | 408 kts | 66° |
| 2026-04-25 11:43 | 34.44314 | 139.58616 | 16046 ft | 405 kts | 67° |
| 2026-04-25 11:43 | 34.45388 | 139.61762 | 15735 ft | 403 kts | 67° |
| 2026-04-25 11:43 | 34.46455 | 139.64894 | 15413 ft | 400 kts | 67° |
| 2026-04-25 11:44 | 34.47507 | 139.67964 | 15141 ft | 385 kts | 66° |
| 2026-04-25 11:44 | 34.48793 | 139.70697 | 14813 ft | 362 kts | 51° |
| 2026-04-25 11:44 | 34.50495 | 139.72801 | 14529 ft | 338 kts | 35° |
| 2026-04-25 11:44 | 34.52383 | 139.74366 | 14234 ft | 320 kts | 30° |
| 2026-04-25 11:45 | 34.54225 | 139.75756 | 13983 ft | 304 kts | 29° |
| 2026-04-25 11:45 | 34.55966 | 139.77050 | 13713 ft | 294 kts | 28° |
| 2026-04-25 11:45 | 34.57720 | 139.78343 | 13453 ft | 294 kts | 28° |
| 2026-04-25 11:45 | 34.59461 | 139.79625 | 13191 ft | 291 kts | 28° |
| 2026-04-25 11:46 | 34.61186 | 139.80894 | 12930 ft | 289 kts | 28° |
| 2026-04-25 11:46 | 34.62902 | 139.82156 | 12678 ft | 287 kts | 29° |
| 2026-04-25 11:46 | 34.64611 | 139.83414 | 12442 ft | 285 kts | 29° |
| 2026-04-25 11:46 | 34.66303 | 139.84662 | 12228 ft | 283 kts | 30° |
| 2026-04-25 11:47 | 34.67985 | 139.85903 | 12011 ft | 281 kts | 30° |
| 2026-04-25 11:47 | 34.69651 | 139.87137 | 11956 ft | 280 kts | 30° |
| 2026-04-25 11:47 | 34.71318 | 139.88364 | 11966 ft | 280 kts | 30° |
| 2026-04-25 11:47 | 34.72983 | 139.89591 | 11951 ft | 280 kts | 30° |
| 2026-04-25 11:48 | 34.74645 | 139.90819 | 11960 ft | 279 kts | 30° |
| 2026-04-25 11:48 | 34.76307 | 139.92046 | 11956 ft | 279 kts | 30° |
| 2026-04-25 11:48 | 34.77969 | 139.93275 | 11953 ft | 279 kts | 30° |
| 2026-04-25 11:48 | 34.79618 | 139.94522 | 11950 ft | 279 kts | 33° |
| 2026-04-25 11:49 | 34.80984 | 139.96194 | 11959 ft | 281 kts | 58° |
| 2026-04-25 11:49 | 34.81621 | 139.98426 | 11970 ft | 281 kts | 80° |
| 2026-04-25 11:49 | 34.81890 | 140.00780 | 11959 ft | 282 kts | 83° |
| 2026-04-25 11:49 | 34.82126 | 140.03160 | 11971 ft | 282 kts | 83° |
| 2026-04-25 11:50 | 34.82371 | 140.05537 | 11959 ft | 282 kts | 82° |
| 2026-04-25 11:50 | 34.82624 | 140.07908 | 11972 ft | 283 kts | 82° |
| 2026-04-25 11:50 | 34.82914 | 140.10271 | 11957 ft | 282 kts | 77° |
| 2026-04-25 11:50 | 34.83613 | 140.12494 | 11961 ft | 281 kts | 61° |
| 2026-04-25 11:51 | 34.84562 | 140.14580 | 11960 ft | 281 kts | 59° |
| 2026-04-25 11:51 | 34.85536 | 140.16651 | 11960 ft | 281 kts | 59° |
| 2026-04-25 11:51 | 34.86502 | 140.18717 | 11980 ft | 281 kts | 59° |
| 2026-04-25 11:51 | 34.87451 | 140.20761 | 11961 ft | 281 kts | 59° |
| 2026-04-25 11:52 | 34.88434 | 140.22816 | 11933 ft | 279 kts | 56° |
| 2026-04-25 11:52 | 34.89716 | 140.24563 | 11599 ft | 276 kts | 37° |
| 2026-04-25 11:52 | 34.91405 | 140.25603 | 11247 ft | 272 kts | 12° |
| 2026-04-25 11:52 | 34.93270 | 140.25645 | 10911 ft | 268 kts | 346° |
| 2026-04-25 11:53 | 34.94904 | 140.24616 | 10563 ft | 266 kts | 317° |
| 2026-04-25 11:53 | 34.96185 | 140.22999 | 10227 ft | 265 kts | 312° |
| 2026-04-25 11:53 | 34.97407 | 140.21316 | 9995 ft | 264 kts | 312° |
| 2026-04-25 11:53 | 34.98618 | 140.19668 | 9965 ft | 265 kts | 313° |
| 2026-04-25 11:54 | 34.99858 | 140.18006 | 9966 ft | 265 kts | 313° |
| 2026-04-25 11:54 | 35.01105 | 140.16348 | 9972 ft | 264 kts | 313° |
| 2026-04-25 11:54 | 35.03593 | 140.13055 | 9962 ft | 260 kts | 313° |
| 2026-04-25 11:55 | 35.04786 | 140.11479 | 9958 ft | 246 kts | 313° |
| 2026-04-25 11:55 | 35.05933 | 140.09964 | 9873 ft | 243 kts | 313° |
| 2026-04-25 11:55 | 35.07087 | 140.08441 | 9545 ft | 243 kts | 314° |
| 2026-04-25 11:55 | 35.08227 | 140.06934 | 9283 ft | 240 kts | 314° |
| 2026-04-25 11:56 | 35.09356 | 140.05440 | 9012 ft | 238 kts | 314° |
| 2026-04-25 11:56 | 35.10479 | 140.03958 | 8705 ft | 237 kts | 314° |
| 2026-04-25 11:56 | 35.11597 | 140.02480 | 8412 ft | 237 kts | 314° |
| 2026-04-25 11:56 | 35.12711 | 140.01007 | 8110 ft | 235 kts | 314° |
| 2026-04-25 11:57 | 35.13840 | 139.99559 | 7826 ft | 234 kts | 318° |
| 2026-04-25 11:57 | 35.15163 | 139.98450 | 7544 ft | 229 kts | 338° |
| 2026-04-25 11:57 | 35.16650 | 139.98012 | 7331 ft | 212 kts | 358° |
| 2026-04-25 11:57 | 35.18081 | 139.98014 | 7078 ft | 200 kts | 3° |
| 2026-04-25 11:58 | 35.19448 | 139.98079 | 6768 ft | 192 kts | 3° |
| 2026-04-25 11:58 | 35.20770 | 139.98138 | 6343 ft | 189 kts | 3° |
| 2026-04-25 11:58 | 35.22083 | 139.98188 | 5825 ft | 189 kts | 2° |
| 2026-04-25 11:58 | 35.23381 | 139.98148 | 5366 ft | 189 kts | 356° |
| 2026-04-25 11:59 | 35.24674 | 139.97951 | 5034 ft | 189 kts | 350° |
| 2026-04-25 11:59 | 35.25949 | 139.97596 | 4963 ft | 189 kts | 345° |
| 2026-04-25 11:59 | 35.27196 | 139.97084 | 4961 ft | 189 kts | 339° |
| 2026-04-25 12:00 | 35.29541 | 139.95632 | 4960 ft | 189 kts | 331° |
| 2026-04-25 12:00 | 35.30683 | 139.94835 | 4970 ft | 189 kts | 330° |
| 2026-04-25 12:00 | 35.32962 | 139.93220 | 4907 ft | 189 kts | 331° |
| 2026-04-25 12:01 | 35.34108 | 139.92441 | 4682 ft | 189 kts | 332° |
| 2026-04-25 12:01 | 35.35241 | 139.91651 | 4366 ft | 190 kts | 330° |
| 2026-04-25 12:01 | 35.36389 | 139.90828 | 4026 ft | 192 kts | 330° |
| 2026-04-25 12:01 | 35.37533 | 139.90018 | 3720 ft | 188 kts | 330° |
| 2026-04-25 12:02 | 35.39809 | 139.88403 | 3180 ft | 189 kts | 329° |
| 2026-04-25 12:02 | 35.40954 | 139.87591 | 2924 ft | 191 kts | 330° |
| 2026-04-25 12:02 | 35.42099 | 139.86779 | 2668 ft | 189 kts | 330° |
| 2026-04-25 12:03 | 35.43230 | 139.85976 | 2414 ft | 186 kts | 330° |
| 2026-04-25 12:03 | 35.44337 | 139.85189 | 2165 ft | 181 kts | 331° |
| 2026-04-25 12:03 | 35.45404 | 139.84432 | 1913 ft | 174 kts | 332° |
| 2026-04-25 12:03 | 35.46443 | 139.83695 | 1694 ft | 172 kts | 332° |
| 2026-04-25 12:04 | 35.47474 | 139.82962 | 1448 ft | 168 kts | 332° |
| 2026-04-25 12:04 | 35.48451 | 139.82268 | 1219 ft | 157 kts | 332° |
| 2026-04-25 12:04 | 35.49369 | 139.81616 | 1013 ft | 147 kts | 332° |
| 2026-04-25 12:04 | 35.50231 | 139.81002 | 825 ft | 139 kts | 333° |
| 2026-04-25 12:05 | 35.51064 | 139.80410 | 661 ft | 139 kts | 333° |
| 2026-04-25 12:05 | 35.51905 | 139.79809 | 466 ft | 139 kts | 334° |
| 2026-04-25 12:05 | 35.52743 | 139.79221 | 285 ft | 139 kts | 334° |
| 2026-04-25 12:05 | 35.53561 | 139.78626 | 99 ft | 138 kts | 335° |
| 2026-04-25 12:06 | 35.54377 | 139.78062 | 26 ft | 118 kts | 330° |
| 2026-04-25 12:06 | 35.54937 | 139.77662 | 27 ft | 69 kts | 330° |
| 2026-04-25 12:06 | 35.55238 | 139.77447 | 28 ft | 31 kts | 330° |
| 2026-04-25 12:06 | 35.55407 | 139.77368 | 28 ft | 25 kts | 349° |
| 2026-04-25 12:07 | 35.55518 | 139.77354 | 27 ft | 11 kts | 0° |
| 2026-04-25 12:07 | 35.55569 | 139.77381 | 27 ft | 9 kts | 49° |
| 2026-04-25 12:07 | 35.55579 | 139.77447 | 28 ft | 7 kts | 110° |
| 2026-04-25 12:07 | 35.55542 | 139.77484 | 29 ft | 8 kts | 149° |
| 2026-04-25 12:08 | 35.55487 | 139.77525 | 29 ft | 11 kts | 150° |
| 2026-04-25 12:08 | 35.55409 | 139.77581 | 29 ft | 15 kts | 149° |
| 2026-04-25 12:08 | 35.55310 | 139.77651 | 28 ft | 18 kts | 150° |
| 2026-04-25 12:08 | 35.55194 | 139.77733 | 28 ft | 21 kts | 150° |
| 2026-04-25 12:09 | 35.55062 | 139.77827 | 28 ft | 23 kts | 149° |
| 2026-04-25 12:09 | 35.54914 | 139.77931 | 28 ft | 25 kts | 150° |
| 2026-04-25 12:09 | 35.54760 | 139.78041 | 28 ft | 19 kts | 150° |
| 2026-04-25 12:09 | 35.54658 | 139.78113 | 28 ft | 15 kts | 150° |
| 2026-04-25 12:10 | 35.54599 | 139.78160 | 28 ft | 9 kts | 134° |
| 2026-04-25 12:10 | 35.54597 | 139.78228 | 29 ft | 8 kts | 58° |
| 2026-04-25 12:10 | 35.54643 | 139.78244 | 30 ft | 7 kts | 352° |
| 2026-04-25 12:10 | 35.54698 | 139.78212 | 30 ft | 11 kts | 331° |
| 2026-04-25 12:11 | 35.54766 | 139.78165 | 30 ft | 6 kts | 330° |
| 2026-04-25 12:11 | 35.54803 | 139.78156 | 29 ft | 4 kts | 27° |
| 2026-04-25 12:11 | 35.54823 | 139.78191 | 29 ft | 3 kts | 63° |
| 2026-04-25 12:11 | 35.54830 | 139.78214 | 29 ft | 3 kts | 69° |
| 2026-04-25 12:12 | 35.54835 | 139.78231 | 29 ft | 1 kts | 70° |